createdAt,value
2022-07-29T00:01:54.457Z,11.50
2022-07-29T00:04:23.914Z,10.98
2022-07-29T00:06:51.154Z,11.15
2022-07-29T00:09:21.035Z,11.18
2022-07-29T00:11:51.583Z,10.40
2022-07-29T00:14:19.172Z,10.23
2022-07-29T00:16:46.592Z,9.65
2022-07-29T00:19:13.935Z,9.10
2022-07-29T00:21:41.292Z,10.57
2022-07-29T00:24:09.188Z,10.65
2022-07-29T00:26:36.824Z,11.02
2022-07-29T00:29:33.111Z,10.68
2022-07-29T00:31:54.271Z,9.82
2022-07-29T00:34:41.465Z,9.70
2022-07-29T00:37:09.131Z,10.38
2022-07-29T00:39:36.423Z,10.02
2022-07-29T00:42:06.250Z,10.32
2022-07-29T00:44:43.706Z,10.25
2022-07-29T00:47:13.359Z,9.85
2022-07-29T00:49:42.971Z,9.57
2022-07-29T00:52:12.307Z,10.40
2022-07-29T00:54:44.534Z,10.30
2022-07-29T00:57:17.681Z,9.63
2022-07-29T00:59:44.943Z,9.95
2022-07-29T01:02:12.627Z,10.20
2022-07-29T01:04:41.313Z,9.95
2022-07-29T01:07:09.040Z,9.77
2022-07-29T01:09:46.007Z,9.95
2022-07-29T01:12:21.267Z,9.77
2022-07-29T01:14:51.809Z,10.20
2022-07-29T01:17:32.791Z,11.20
2022-07-29T01:20:22.944Z,11.90
2022-07-29T01:23:42.170Z,10.55
2022-07-29T01:27:25.179Z,11.30
2022-07-29T01:30:02.467Z,9.65
2022-07-29T01:33:51.409Z,11.43
2022-07-29T01:37:34.122Z,11.32
2022-07-29T01:41:16.849Z,10.43
2022-07-29T01:44:59.498Z,13.75
2022-07-29T01:47:44.736Z,10.50
2022-07-29T01:51:28.311Z,10.82
2022-07-29T01:55:10.956Z,11.98
2022-07-29T01:58:53.827Z,12.00
2022-07-29T02:02:42.825Z,11.10
2022-07-29T02:06:28.494Z,11.15
2022-07-29T02:10:11.425Z,10.48
2022-07-29T02:13:54.618Z,11.40
2022-07-29T02:17:38.885Z,10.32
2022-07-29T02:20:18.599Z,11.00
2022-07-29T02:22:52.463Z,12.02
2022-07-29T02:25:23.471Z,11.00
2022-07-29T02:27:56.612Z,11.20
2022-07-29T02:30:26.714Z,10.93
2022-07-29T02:32:56.394Z,10.55
2022-07-29T02:35:26.980Z,10.50
2022-07-29T02:38:14.122Z,10.43
2022-07-29T02:40:47.511Z,10.68
2022-07-29T02:43:18.167Z,10.45
2022-07-29T02:45:55.340Z,10.65
2022-07-29T02:48:40.833Z,10.02
2022-07-29T02:51:44.179Z,10.20
2022-07-29T02:55:20.420Z,10.35
2022-07-29T02:58:07.397Z,10.15
2022-07-29T03:00:40.384Z,10.20
2022-07-29T03:03:16.402Z,9.90
2022-07-29T03:05:43.932Z,10.05
2022-07-29T03:08:14.030Z,10.10
2022-07-29T03:10:46.526Z,10.18
2022-07-29T03:13:15.454Z,9.80
2022-07-29T03:15:48.418Z,9.68
2022-07-29T03:18:16.846Z,9.90
2022-07-29T03:20:44.697Z,9.13
2022-07-29T03:23:20.795Z,9.50
2022-07-29T03:25:48.288Z,9.38
2022-07-29T03:28:15.855Z,10.75
2022-07-29T03:30:47.032Z,9.57
2022-07-29T03:33:15.359Z,9.65
2022-07-29T03:35:43.281Z,10.30
2022-07-29T03:38:16.096Z,10.70
2022-07-29T03:41:07.359Z,10.50
2022-07-29T03:43:49.608Z,10.10
2022-07-29T03:46:19.237Z,10.13
2022-07-29T03:48:51.976Z,10.75
2022-07-29T03:51:19.332Z,10.43
2022-07-29T03:54:10.084Z,10.90
2022-07-29T03:56:45.512Z,10.40
2022-07-29T03:59:16.538Z,10.32
2022-07-29T04:01:47.096Z,10.80
2022-07-29T04:04:18.539Z,10.48
2022-07-29T04:06:48.397Z,10.60
2022-07-29T04:09:18.425Z,10.57
2022-07-29T04:12:02.245Z,10.77
2022-07-29T04:14:36.898Z,11.00
2022-07-29T04:17:14.420Z,9.63
2022-07-29T04:19:44.525Z,9.40
2022-07-29T04:22:16.133Z,9.50
2022-07-29T04:24:44.592Z,10.13
2022-07-29T04:27:17.782Z,9.40
2022-07-29T04:29:56.959Z,9.10
2022-07-29T04:32:27.139Z,8.20
2022-07-29T04:34:54.865Z,8.45
2022-07-29T04:37:24.885Z,9.77
2022-07-29T04:39:57.592Z,8.52
2022-07-29T04:42:27.970Z,9.10
2022-07-29T04:45:01.249Z,8.52
2022-07-29T04:47:29.146Z,7.70
2022-07-29T04:49:57.315Z,7.43
2022-07-29T04:52:24.606Z,6.10
2022-07-29T04:54:52.592Z,6.05
2022-07-29T04:57:20.266Z,6.03
2022-07-29T04:59:47.767Z,6.03
2022-07-29T05:02:18.239Z,6.25
2022-07-29T05:04:49.438Z,6.20
2022-07-29T05:07:16.950Z,6.57
2022-07-29T05:09:44.542Z,7.30
2022-07-29T05:12:13.152Z,5.68
2022-07-29T05:14:40.911Z,5.82
2022-07-29T05:17:08.871Z,6.15
2022-07-29T05:19:41.477Z,5.05
2022-07-29T05:22:14.331Z,5.07
2022-07-29T05:24:45.369Z,4.53
2022-07-29T05:27:22.395Z,4.25
2022-07-29T05:29:53.313Z,4.20
2022-07-29T05:32:25.049Z,4.18
2022-07-29T05:35:06.030Z,3.88
2022-07-29T05:37:42.285Z,3.70
2022-07-29T05:40:13.474Z,3.45
2022-07-29T05:42:49.842Z,3.72
2022-07-29T05:45:25.134Z,4.00
2022-07-29T05:47:55.996Z,4.13
2022-07-29T05:50:28.747Z,4.40
2022-07-29T05:52:56.573Z,4.30
2022-07-29T05:55:43.068Z,4.50
2022-07-29T05:58:18.482Z,3.53
2022-07-29T06:01:01.790Z,4.07
2022-07-29T06:03:30.098Z,3.25
2022-07-29T06:05:57.779Z,4.15
2022-07-29T06:08:28.375Z,3.90
2022-07-29T06:10:58.530Z,3.92
2022-07-29T06:13:34.664Z,4.30
2022-07-29T06:16:06.501Z,4.00
2022-07-29T06:18:37.388Z,5.10
2022-07-29T06:21:18.759Z,4.07
2022-07-29T06:23:47.879Z,4.25
2022-07-29T06:26:16.018Z,3.30
2022-07-29T06:28:44.569Z,3.38
2022-07-29T06:31:14.943Z,3.20
2022-07-29T06:33:46.023Z,3.03
2022-07-29T06:36:13.689Z,3.15
2022-07-29T06:38:47.561Z,3.20
2022-07-29T06:41:18.540Z,3.28
2022-07-29T06:43:52.571Z,3.35
2022-07-29T06:46:24.465Z,3.28
2022-07-29T06:48:55.569Z,3.10
2022-07-29T06:51:24.189Z,3.17
2022-07-29T06:53:59.737Z,3.22
2022-07-29T06:56:42.062Z,2.80
2022-07-29T06:59:13.309Z,2.50
2022-07-29T07:01:56.967Z,2.70
2022-07-29T07:04:28.135Z,2.85
2022-07-29T07:07:02.344Z,2.63
2022-07-29T07:09:40.381Z,2.60
2022-07-29T07:12:17.632Z,3.05
2022-07-29T07:14:45.797Z,3.45
2022-07-29T07:17:15.593Z,2.70
2022-07-29T07:19:52.256Z,2.97
2022-07-29T07:22:26.101Z,3.15
2022-07-29T07:25:19.112Z,3.10
2022-07-29T07:27:46.902Z,2.83
2022-07-29T07:30:15.221Z,3.25
2022-07-29T07:32:42.905Z,3.40
2022-07-29T07:35:11.979Z,2.97
2022-07-29T07:37:45.566Z,3.38
2022-07-29T07:40:18.639Z,2.92
2022-07-29T07:42:46.492Z,2.70
2022-07-29T07:45:16.102Z,3.67
2022-07-29T07:47:44.632Z,3.53
2022-07-29T07:50:18.853Z,3.63
2022-07-29T07:52:58.560Z,2.97
2022-07-29T07:55:27.416Z,2.97
2022-07-29T07:57:56.610Z,2.80
2022-07-29T08:00:24.794Z,2.55
2022-07-29T08:02:52.261Z,3.15
2022-07-29T08:05:19.812Z,2.22
2022-07-29T08:07:48.311Z,2.70
2022-07-29T08:10:37.358Z,2.95
2022-07-29T08:13:11.806Z,2.70
2022-07-29T08:15:41.991Z,2.20
2022-07-29T08:18:09.837Z,2.75
2022-07-29T08:20:39.921Z,3.00
2022-07-29T08:23:11.758Z,2.33
2022-07-29T08:25:40.370Z,2.55
2022-07-29T08:28:10.881Z,2.55
2022-07-29T08:30:38.490Z,2.50
2022-07-29T08:33:06.114Z,2.40
2022-07-29T08:35:35.525Z,3.13
2022-07-29T08:38:04.441Z,3.00
2022-07-29T08:40:34.814Z,2.30
2022-07-29T08:43:09.890Z,2.50
2022-07-29T08:45:51.274Z,2.75
2022-07-29T08:48:25.738Z,2.45
2022-07-29T08:50:57.833Z,2.50
2022-07-29T08:53:28.203Z,2.40
2022-07-29T08:56:02.102Z,2.90
2022-07-29T08:58:37.041Z,2.30
2022-07-29T09:01:12.225Z,2.97
2022-07-29T09:03:47.261Z,2.35
2022-07-29T09:06:22.527Z,2.55
2022-07-29T09:08:50.926Z,2.00
2022-07-29T09:11:20.832Z,2.35
2022-07-29T09:13:50.483Z,2.03
2022-07-29T09:16:37.222Z,2.65
2022-07-29T09:19:29.929Z,2.20
2022-07-29T09:22:03.134Z,2.10
2022-07-29T09:24:48.275Z,2.80
2022-07-29T09:27:31.181Z,2.58
2022-07-29T09:30:15.875Z,2.10
2022-07-29T09:33:03.682Z,2.22
2022-07-29T09:35:32.240Z,2.67
2022-07-29T09:38:17.637Z,2.58
2022-07-29T09:41:05.862Z,2.60
2022-07-29T09:43:35.319Z,2.30
2022-07-29T09:46:14.440Z,2.35
2022-07-29T09:48:42.155Z,2.42
2022-07-29T09:51:24.233Z,2.60
2022-07-29T09:54:08.220Z,2.70
2022-07-29T09:56:47.132Z,2.25
2022-07-29T09:59:27.940Z,2.80
2022-07-29T10:01:58.056Z,2.80
2022-07-29T10:04:41.507Z,2.90
2022-07-29T10:07:09.492Z,2.58
2022-07-29T10:09:37.719Z,2.90
2022-07-29T10:12:10.197Z,2.70
2022-07-29T10:14:40.941Z,2.40
2022-07-29T10:17:11.523Z,2.33
2022-07-29T10:19:40.737Z,2.65
2022-07-29T10:22:11.509Z,2.58
2022-07-29T10:24:45.952Z,2.83
2022-07-29T10:27:27.112Z,2.78
2022-07-29T10:29:57.368Z,2.78
2022-07-29T10:33:18.761Z,2.70
2022-07-29T10:36:47.697Z,2.50
2022-07-29T10:40:53.073Z,2.90
2022-07-29T10:44:04.874Z,2.92
2022-07-29T10:46:42.975Z,2.83
2022-07-29T10:50:26.729Z,2.80
2022-07-29T10:52:59.603Z,3.10
2022-07-29T11:00:04.950Z,3.03
2022-07-29T11:03:57.856Z,3.03
2022-07-29T11:07:03.797Z,3.30
2022-07-29T11:09:37.443Z,3.22
2022-07-29T11:12:37.728Z,2.72
2022-07-29T11:15:10.039Z,3.10
2022-07-29T11:17:59.658Z,3.42
2022-07-29T11:20:50.997Z,2.85
2022-07-29T11:24:35.782Z,3.35
2022-07-29T11:28:27.081Z,3.33
2022-07-29T11:32:15.756Z,3.10
2022-07-29T11:34:48.596Z,3.50
2022-07-29T11:37:27.631Z,2.53
2022-07-29T11:40:01.564Z,6.05
2022-07-29T11:42:33.058Z,2.67
2022-07-29T11:45:41.902Z,4.90
2022-07-29T11:48:28.334Z,5.35
2022-07-29T11:50:58.588Z,5.78
2022-07-29T11:53:32.890Z,5.40
2022-07-29T11:56:02.459Z,5.28
2022-07-29T11:58:32.159Z,5.43
2022-07-29T12:01:19.105Z,5.38
2022-07-29T12:03:48.933Z,6.30
2022-07-29T12:06:18.078Z,6.13
2022-07-29T12:09:14.462Z,5.82
2022-07-29T12:11:47.328Z,5.05
2022-07-29T12:14:34.743Z,5.18
2022-07-29T12:17:06.385Z,5.85
2022-07-29T12:19:46.260Z,5.25
2022-07-29T12:22:44.450Z,6.43
2022-07-29T12:25:32.326Z,6.72
2022-07-29T12:28:14.128Z,6.53
2022-07-29T12:30:51.633Z,8.02
2022-07-29T12:33:30.762Z,7.30
2022-07-29T12:36:14.313Z,14.43
2022-07-29T12:38:50.732Z,7.93
2022-07-29T12:41:21.161Z,7.80
2022-07-29T12:43:59.268Z,7.75
2022-07-29T12:46:40.837Z,7.97
2022-07-29T12:49:08.448Z,7.18
2022-07-29T12:51:46.950Z,6.10
2022-07-29T12:54:39.977Z,6.70
2022-07-29T12:57:07.572Z,6.72
2022-07-29T13:00:14.431Z,6.30
2022-07-29T13:03:28.177Z,6.15
2022-07-29T13:05:59.205Z,6.57
2022-07-29T13:08:38.826Z,6.90
2022-07-29T13:12:27.874Z,6.47
2022-07-29T13:14:55.696Z,8.18
2022-07-29T13:18:41.768Z,8.57
2022-07-29T13:21:27.970Z,6.82
2022-07-29T13:24:09.079Z,8.13
2022-07-29T13:26:45.527Z,7.95
2022-07-29T13:29:17.703Z,8.35
2022-07-29T13:31:46.049Z,8.98
2022-07-29T13:35:30.720Z,13.00
2022-07-29T13:39:16.450Z,10.48
2022-07-29T13:41:44.081Z,11.50
2022-07-29T13:45:30.807Z,12.35
2022-07-29T13:47:58.333Z,12.18
2022-07-29T13:51:44.683Z,12.43
2022-07-29T13:54:14.415Z,15.02
2022-07-29T13:56:41.740Z,13.52
2022-07-29T14:00:24.817Z,15.85
2022-07-29T14:02:52.311Z,11.20
2022-07-29T14:05:19.694Z,10.38
2022-07-29T14:07:46.936Z,11.85
2022-07-29T14:10:18.399Z,12.43
2022-07-29T14:12:47.218Z,11.35
2022-07-29T14:15:18.286Z,10.20
2022-07-29T14:17:45.525Z,13.35
2022-07-29T14:20:13.190Z,12.95
2022-07-29T14:22:42.602Z,14.10
2022-07-29T14:25:14.925Z,11.50
2022-07-29T14:27:46.392Z,10.40
2022-07-29T14:30:14.246Z,10.93
2022-07-29T14:32:44.377Z,8.98
2022-07-29T14:35:11.787Z,8.55
2022-07-29T14:37:40.820Z,7.72
2022-07-29T14:40:10.514Z,6.78
2022-07-29T14:42:38.917Z,7.40
2022-07-29T14:45:10.205Z,6.50
2022-07-29T14:47:43.232Z,7.00
2022-07-29T14:50:15.467Z,7.82
2022-07-29T14:52:43.179Z,6.82
2022-07-29T14:55:16.464Z,7.50
2022-07-29T14:57:54.341Z,7.85
2022-07-29T15:00:27.403Z,7.72
2022-07-29T15:03:02.299Z,7.75
2022-07-29T15:05:34.142Z,7.90
2022-07-29T15:08:02.396Z,7.97
2022-07-29T15:10:30.366Z,7.70
2022-07-29T15:12:58.310Z,8.20
2022-07-29T15:15:28.418Z,8.65
2022-07-29T15:18:01.368Z,8.48
2022-07-29T15:20:32.724Z,7.80
2022-07-29T15:23:05.326Z,7.85
2022-07-29T15:25:33.957Z,8.13
2022-07-29T15:28:03.849Z,8.73
2022-07-29T15:30:34.843Z,7.70
2022-07-29T15:33:04.365Z,7.88
2022-07-29T15:35:40.444Z,8.30
2022-07-29T15:39:05.353Z,7.78
2022-07-29T15:41:46.385Z,7.78
2022-07-29T15:44:17.049Z,8.27
2022-07-29T15:47:06.374Z,7.95
2022-07-29T15:49:48.178Z,7.32
2022-07-29T15:52:25.693Z,7.07
2022-07-29T15:54:58.258Z,7.18
2022-07-29T15:57:26.063Z,7.10
2022-07-29T15:59:53.985Z,6.28
2022-07-29T16:02:27.252Z,6.97
2022-07-29T16:04:55.116Z,6.63
2022-07-29T16:07:22.406Z,6.70
2022-07-29T16:09:53.202Z,6.97
2022-07-29T16:12:23.016Z,6.38
2022-07-29T16:14:51.505Z,5.72
2022-07-29T16:17:21.193Z,5.13
2022-07-29T16:19:54.493Z,5.75
2022-07-29T16:22:24.428Z,6.05
2022-07-29T16:24:57.207Z,5.50
2022-07-29T16:27:27.145Z,5.57
2022-07-29T16:30:04.467Z,5.38
2022-07-29T16:32:32.083Z,5.07
2022-07-29T16:35:02.082Z,4.90
2022-07-29T16:37:33.534Z,5.25
2022-07-29T16:40:01.933Z,4.78
2022-07-29T16:42:46.226Z,4.72
2022-07-29T16:45:17.441Z,5.03
2022-07-29T16:47:48.644Z,4.97
2022-07-29T16:50:16.631Z,5.00
2022-07-29T16:52:43.871Z,4.95
2022-07-29T16:55:13.512Z,5.50
2022-07-29T16:57:42.673Z,5.15
2022-07-29T17:00:12.862Z,5.10
2022-07-29T17:02:43.068Z,4.70
2022-07-29T17:05:12.353Z,5.22
2022-07-29T17:07:42.918Z,4.90
2022-07-29T17:10:11.679Z,5.18
2022-07-29T17:12:49.376Z,5.18
2022-07-29T17:15:20.386Z,5.05
2022-07-29T17:17:55.197Z,5.35
2022-07-29T17:20:27.527Z,5.32
2022-07-29T17:23:00.382Z,5.45
2022-07-29T17:25:33.603Z,5.43
2022-07-29T17:28:03.269Z,5.47
2022-07-29T17:30:55.780Z,6.03
2022-07-29T17:33:25.580Z,5.60
2022-07-29T17:36:15.346Z,5.90
2022-07-29T17:38:43.864Z,5.60
2022-07-29T17:41:12.519Z,6.10
2022-07-29T17:43:40.248Z,6.20
2022-07-29T17:46:10.358Z,6.22
2022-07-29T17:48:40.086Z,6.30
2022-07-29T17:51:08.765Z,6.32
2022-07-29T17:53:39.678Z,5.63
2022-07-29T17:56:08.154Z,5.85
2022-07-29T17:58:36.485Z,6.43
2022-07-29T18:01:04.419Z,6.93
2022-07-29T18:03:32.565Z,5.95
2022-07-29T18:06:01.551Z,6.20
2022-07-29T18:08:35.034Z,6.55
2022-07-29T18:11:03.619Z,6.40
2022-07-29T18:13:33.541Z,5.68
2022-07-29T18:16:14.964Z,6.03
2022-07-29T18:18:46.040Z,5.47
2022-07-29T18:21:41.113Z,4.43
2022-07-29T18:24:20.831Z,5.28
2022-07-29T18:26:48.977Z,4.97
2022-07-29T18:29:23.161Z,5.18
2022-07-29T18:31:51.387Z,5.43
2022-07-29T18:34:19.657Z,5.35
2022-07-29T18:36:51.235Z,5.25
2022-07-29T18:39:22.066Z,5.68
2022-07-29T18:41:52.393Z,5.88
2022-07-29T18:44:30.512Z,6.43
2022-07-29T18:47:00.173Z,6.88
2022-07-29T18:49:33.305Z,7.10
2022-07-29T18:52:01.460Z,7.15
2022-07-29T18:55:27.423Z,7.50
2022-07-29T18:58:02.066Z,7.13
2022-07-29T19:00:35.957Z,6.57
2022-07-29T19:03:12.721Z,6.70
2022-07-29T19:05:56.087Z,7.10
2022-07-29T19:08:34.278Z,7.60
2022-07-29T19:11:14.839Z,8.07
2022-07-29T19:13:42.646Z,8.73
2022-07-29T19:16:35.182Z,8.88
2022-07-29T19:19:13.220Z,8.82
2022-07-29T19:21:42.146Z,8.77
2022-07-29T19:24:15.257Z,8.85
2022-07-29T19:26:49.537Z,8.50
2022-07-29T19:29:18.779Z,7.95
2022-07-29T19:31:48.512Z,8.00
2022-07-29T19:34:16.281Z,8.52
2022-07-29T19:36:43.888Z,8.70
2022-07-29T19:39:36.818Z,8.70
2022-07-29T19:42:05.530Z,9.13
2022-07-29T19:44:35.964Z,9.60
2022-07-29T19:47:05.171Z,8.48
2022-07-29T19:49:37.671Z,9.35
2022-07-29T19:52:10.971Z,8.43
2022-07-29T19:54:38.933Z,8.98
2022-07-29T19:57:06.808Z,7.80
2022-07-29T19:59:34.591Z,8.30
2022-07-29T20:02:10.737Z,8.82
2022-07-29T20:04:50.301Z,8.65
2022-07-29T20:07:24.861Z,8.77
2022-07-29T20:09:55.735Z,7.93
2022-07-29T20:12:24.299Z,8.25
2022-07-29T20:14:51.998Z,8.93
2022-07-29T20:17:22.499Z,9.65
2022-07-29T20:19:53.698Z,8.63
2022-07-29T20:22:27.488Z,8.77
2022-07-29T20:24:55.339Z,8.38
2022-07-29T20:27:23.253Z,9.07
2022-07-29T20:29:51.079Z,8.55
2022-07-29T20:32:19.547Z,9.20
2022-07-29T20:34:47.010Z,8.85
2022-07-29T20:38:33.074Z,9.48
2022-07-29T20:41:07.465Z,8.77
2022-07-29T20:44:56.942Z,9.90
2022-07-29T20:47:36.462Z,10.02
2022-07-29T20:51:20.549Z,9.95
2022-07-29T20:55:12.184Z,10.13
2022-07-29T20:57:40.211Z,10.70
2022-07-29T21:01:23.614Z,12.38
2022-07-29T21:03:50.902Z,11.13
2022-07-29T21:07:33.679Z,11.73
2022-07-29T21:11:16.307Z,12.38
2022-07-29T21:13:45.490Z,13.43
2022-07-29T21:16:14.860Z,13.38
2022-07-29T21:18:47.238Z,11.73
2022-07-29T21:21:16.470Z,12.07
2022-07-29T21:23:45.878Z,13.63
2022-07-29T21:26:17.916Z,15.18
2022-07-29T21:30:00.918Z,14.27
2022-07-29T21:33:50.753Z,12.48
2022-07-29T21:39:11.329Z,12.95
2022-07-29T21:41:38.796Z,12.00
2022-07-29T21:44:08.846Z,12.07
2022-07-29T21:46:36.610Z,10.93
2022-07-29T21:49:04.246Z,10.98
2022-07-29T21:51:31.520Z,10.05
2022-07-29T21:53:58.879Z,9.15
2022-07-29T21:56:32.872Z,9.32
2022-07-29T21:59:00.318Z,8.98
2022-07-29T22:01:27.751Z,8.75
2022-07-29T22:03:58.741Z,9.63
2022-07-29T22:06:26.111Z,9.02
2022-07-29T22:08:54.994Z,8.73
2022-07-29T22:11:32.859Z,9.00
2022-07-29T22:14:20.952Z,9.18
2022-07-29T22:16:58.013Z,7.95
2022-07-29T22:19:46.803Z,8.57
2022-07-29T22:23:30.306Z,8.43
2022-07-29T22:27:18.246Z,9.25
2022-07-29T22:29:47.888Z,8.32
2022-07-29T22:32:38.243Z,9.05
2022-07-29T22:35:07.822Z,9.90
2022-07-29T22:37:38.042Z,8.77
2022-07-29T22:40:07.349Z,9.32
2022-07-29T22:42:43.662Z,9.68
2022-07-29T22:45:20.571Z,9.45
2022-07-29T22:49:29.842Z,9.70
2022-07-29T22:52:11.284Z,9.13
2022-07-29T22:54:46.076Z,9.45
2022-07-29T22:58:29.409Z,9.73
2022-07-29T23:00:58.309Z,9.70
2022-07-29T23:03:26.451Z,9.77
2022-07-29T23:07:13.244Z,9.68
2022-07-29T23:09:40.550Z,10.30
2022-07-29T23:12:08.659Z,11.10
2022-07-29T23:14:36.073Z,11.23
2022-07-29T23:17:04.688Z,11.35
2022-07-29T23:20:09.795Z,10.25
2022-07-29T23:22:40.792Z,9.98
2022-07-29T23:25:08.842Z,10.13
2022-07-29T23:27:50.513Z,10.63
2022-07-29T23:31:13.239Z,10.00
2022-07-29T23:34:59.804Z,10.50
2022-07-29T23:37:28.836Z,10.38
2022-07-29T23:41:12.693Z,10.80
2022-07-29T23:45:03.622Z,10.20
2022-07-29T23:49:01.246Z,10.45
2022-07-29T23:53:16.795Z,10.38
2022-07-29T23:57:12.963Z,11.45
